Time;durP1;ratioP1;P1;durP2;ratioP2;P2;SDS_P1;SDS_P2;PMS_P1;PMS_P2;Temp;Humidity;BMP_temperature;BMP_pressure;BME280_temperature;BME280_humidity;BME280_pressure;Samples;Min_cycle;Max_cycle;Signal;HPM_P1;HPM_P2
2022/01/13 00:01:16;;;;;;;41.42;16.25;;;;;;;;;;5050614;27;100642;-74
2022/01/13 00:03:45;;;;;;;45.35;15.60;;;;;;;;;;5052494;27;100197;-75
2022/01/13 00:06:12;;;;;;;43.65;16.77;;;;;;;;;;5018487;27;100048;-74
2022/01/13 00:08:39;;;;;;;43.58;16.33;;;;;;;;;;5046167;27;100200;-75
2022/01/13 00:11:05;;;;;;;50.10;16.67;;;;;;;;;;5032581;27;100639;-75
2022/01/13 00:13:45;;;;;;;48.30;17.85;;;;;;;;;;5032861;27;100018;-75
2022/01/13 00:16:26;;;;;;;41.05;16.92;;;;;;;;;;5017121;27;99984;-75
2022/01/13 00:19:06;;;;;;;39.25;15.98;;;;;;;;;;5016666;27;100950;-75
2022/01/13 00:21:39;;;;;;;35.38;13.73;;;;;;;;;;5037190;27;100560;-74
2022/01/13 00:24:10;;;;;;;41.75;16.08;;;;;;;;;;5035457;27;100014;-75
2022/01/13 00:26:37;;;;;;;39.72;14.65;;;;;;;;;;5019173;27;100063;-75
2022/01/13 00:29:04;;;;;;;41.20;15.65;;;;;;;;;;5001674;27;100437;-75
2022/01/13 00:31:33;;;;;;;40.35;15.25;;;;;;;;;;5034338;27;101116;-75
2022/01/13 00:34:03;;;;;;;41.08;15.02;;;;;;;;;;5018583;27;100170;-74
2022/01/13 00:36:37;;;;;;;45.33;16.15;;;;;;;;;;5035200;27;101839;-74
2022/01/13 00:39:04;;;;;;;;;;;;;;;;;;5052369;27;100377;-74
2022/01/13 00:41:31;;;;;;;36.60;15.32;;;;;;;;;;5029764;27;101534;-74
2022/01/13 00:43:59;;;;;;;44.15;17.58;;;;;;;;;;5027678;27;100241;-74
2022/01/13 00:46:30;;;;;;;43.67;16.88;;;;;;;;;;5001801;27;100126;-75
2022/01/13 00:48:58;;;;;;;45.28;17.38;;;;;;;;;;5000132;28;100271;-74
2022/01/13 00:51:25;;;;;;;39.42;14.40;;;;;;;;;;5014334;27;100519;-74
2022/01/13 00:53:52;;;;;;;35.80;15.45;;;;;;;;;;4997331;28;100166;-74
2022/01/13 00:56:19;;;;;;;35.72;13.77;;;;;;;;;;5032072;27;100135;-74
2022/01/13 00:58:46;;;;;;;43.85;16.73;;;;;;;;;;5047339;27;101613;-74
2022/01/13 01:01:12;;;;;;;35.55;14.50;;;;;;;;;;5014209;27;100566;-74
2022/01/13 01:03:40;;;;;;;39.75;16.48;;;;;;;;;;5032459;27;100080;-74
2022/01/13 01:06:07;;;;;;;38.67;15.85;;;;;;;;;;5030760;27;100050;-74
2022/01/13 01:08:33;;;;;;;40.10;15.95;;;;;;;;;;5013798;27;100712;-74
2022/01/13 01:11:04;;;;;;;44.08;16.27;;;;;;;;;;5032043;27;100667;-74
2022/01/13 01:13:33;;;;;;;40.83;14.23;;;;;;;;;;5014213;27;100155;-74
2022/01/13 01:16:04;;;;;;;55.13;16.15;;;;;;;;;;4998371;27;99869;-74
2022/01/13 01:29:29;;;;;;;42.72;15.10;;;;;;;;;;4997559;27;100254;-74
2022/01/13 01:31:56;;;;;;;37.65;13.93;;;;;;;;;;5051232;27;101921;-74
2022/01/13 01:36:56;;;;;;;40.58;16.23;;;;;;;;;;5028470;27;100026;-75
2022/01/13 01:39:23;;;;;;;43.05;16.15;;;;;;;;;;5026252;27;100176;-75
2022/01/13 01:41:51;;;;;;;44.33;17.48;;;;;;;;;;5016885;27;100626;-75
2022/01/13 01:44:26;;;;;;;38.72;17.15;;;;;;;;;;5033152;27;100176;-74
2022/01/13 01:46:54;;;;;;;49.47;18.13;;;;;;;;;;5015541;28;100107;-75
2022/01/13 01:49:23;;;;;;;47.00;18.42;;;;;;;;;;5012414;27;100279;-75
2022/01/13 01:51:54;;;;;;;53.92;20.02;;;;;;;;;;5015352;27;100546;-74
2022/01/13 01:54:21;;;;;;;48.97;19.38;;;;;;;;;;5004015;27;100130;-74
2022/01/13 01:56:48;;;;;;;52.65;19.35;;;;;;;;;;5020450;27;100109;-74
2022/01/13 01:59:18;;;;;;;42.03;16.63;;;;;;;;;;5053434;27;100325;-75
2022/01/13 02:01:46;;;;;;;44.78;19.27;;;;;;;;;;4987278;27;100745;-74
2022/01/13 02:04:13;;;;;;;46.17;18.73;;;;;;;;;;5036313;27;100158;-74
2022/01/13 02:06:41;;;;;;;45.13;17.33;;;;;;;;;;5020478;27;100107;-74
2022/01/13 02:09:08;;;;;;;41.97;16.60;;;;;;;;;;5036352;27;100334;-74
2022/01/13 02:11:41;;;;;;;50.67;18.42;;;;;;;;;;5054355;27;100825;-75
2022/01/13 02:14:33;;;;;;;43.83;17.38;;;;;;;;;;5037983;27;100084;-74
2022/01/13 02:17:15;;;;;;;47.58;16.70;;;;;;;;;;5053745;27;100058;-74
2022/01/13 02:19:44;;;;;;;34.97;15.07;;;;;;;;;;5038172;27;100265;-74
2022/01/13 02:22:11;;;;;;;47.55;18.92;;;;;;;;;;5020596;27;101902;-74
2022/01/13 02:24:38;;;;;;;42.47;15.13;;;;;;;;;;5054966;27;100058;-74
2022/01/13 02:27:05;;;;;;;42.90;18.50;;;;;;;;;;5037215;27;99898;-74
2022/01/13 02:29:32;;;;;;;48.30;19.13;;;;;;;;;;5054191;27;100192;-75
2022/01/13 02:31:59;;;;;;;43.63;16.75;;;;;;;;;;5019455;27;100813;-74
2022/01/13 02:34:26;;;;;;;44.97;17.95;;;;;;;;;;5036266;27;100069;-75
2022/01/13 02:36:54;;;;;;;40.75;14.85;;;;;;;;;;5019267;27;100174;-74
2022/01/13 02:39:22;;;;;;;39.85;15.77;;;;;;;;;;5021987;27;102456;-74
2022/01/13 02:41:49;;;;;;;41.95;16.50;;;;;;;;;;5054182;27;100687;-74
2022/01/13 02:44:19;;;;;;;47.95;16.00;;;;;;;;;;5053978;27;100071;-74
2022/01/13 02:49:17;;;;;;;45.92;16.25;;;;;;;;;;5000039;27;101007;-73
2022/01/13 02:51:45;;;;;;;44.75;16.92;;;;;;;;;;5034042;27;100650;-73
2022/01/13 02:54:12;;;;;;;35.05;14.93;;;;;;;;;;5016352;28;100285;-74
2022/01/13 02:56:38;;;;;;;40.17;16.25;;;;;;;;;;5016008;28;99980;-74
2022/01/13 02:59:05;;;;;;;45.13;15.90;;;;;;;;;;5034952;27;100265;-75
2022/01/13 03:01:33;;;;;;;47.53;18.45;;;;;;;;;;5019213;27;100767;-74
2022/01/13 03:04:04;;;;;;;39.53;17.13;;;;;;;;;;5034610;27;100284;-74
2022/01/13 03:06:34;;;;;;;48.35;17.45;;;;;;;;;;5054162;27;99828;-74
2022/01/13 03:09:06;;;;;;;43.72;15.75;;;;;;;;;;5034134;27;100396;-74
2022/01/13 03:11:36;;;;;;;47.60;18.38;;;;;;;;;;5019019;27;100616;-75
2022/01/13 03:14:10;;;;;;;46.80;17.13;;;;;;;;;;5036589;27;100042;-74
2022/01/13 03:16:42;;;;;;;41.60;17.88;;;;;;;;;;5036772;27;100022;-74
2022/01/13 03:19:09;;;;;;;46.17;18.02;;;;;;;;;;5034370;27;100589;-75
2022/01/13 03:21:36;;;;;;;47.78;17.08;;;;;;;;;;5035517;27;100594;-75
2022/01/13 03:24:07;;;;;;;33.95;13.52;;;;;;;;;;5001425;27;100307;-75
2022/01/13 03:26:34;;;;;;;37.38;14.20;;;;;;;;;;5022377;27;100206;-76
2022/01/13 03:29:15;;;;;;;40.90;16.92;;;;;;;;;;5018702;27;100417;-76
2022/01/13 03:31:43;;;;;;;51.47;18.55;;;;;;;;;;5054144;27;100590;-76
2022/01/13 03:34:11;;;;;;;43.55;17.00;;;;;;;;;;5023162;28;100118;-75
2022/01/13 03:36:37;;;;;;;39.20;15.98;;;;;;;;;;5031767;27;103074;-75
2022/01/13 03:39:05;;;;;;;37.40;14.23;;;;;;;;;;5028352;27;100450;-75
2022/01/13 03:41:33;;;;;;;45.60;16.67;;;;;;;;;;5037442;27;100515;-76
2022/01/13 03:44:05;;;;;;;35.65;15.40;;;;;;;;;;5042545;27;100715;-76
2022/01/13 03:46:37;;;;;;;40.08;16.75;;;;;;;;;;5036425;27;100242;-75
2022/01/13 03:49:09;;;;;;;38.00;14.77;;;;;;;;;;5017972;27;102324;-76
2022/01/13 03:52:03;;;;;;;31.27;13.80;;;;;;;;;;5035129;27;101063;-75
2022/01/13 03:54:33;;;;;;;39.83;15.00;;;;;;;;;;5019260;27;100094;-75
2022/01/13 03:57:28;;;;;;;39.22;14.90;;;;;;;;;;5053672;27;100118;-75
2022/01/13 04:00:40;;;;;;;43.55;18.27;;;;;;;;;;5034405;27;100209;-76
2022/01/13 04:03:07;;;;;;;38.58;15.02;;;;;;;;;;5052615;27;100661;-75
2022/01/13 04:05:56;;;;;;;33.42;14.88;;;;;;;;;;5035604;27;100022;-76
2022/01/13 04:08:23;;;;;;;33.78;12.55;;;;;;;;;;5038659;27;100142;-75
2022/01/13 04:10:52;;;;;;;44.83;17.60;;;;;;;;;;5052548;27;100198;-75
2022/01/13 04:13:43;;;;;;;48.08;18.63;;;;;;;;;;5052938;27;100589;-75
2022/01/13 04:16:13;;;;;;;40.67;16.30;;;;;;;;;;5052211;27;99937;-75
2022/01/13 04:18:40;;;;;;;39.70;15.38;;;;;;;;;;5018771;27;100080;-75
2022/01/13 04:21:07;;;;;;;42.35;17.38;;;;;;;;;;5033617;27;100417;-75
2022/01/13 04:23:34;;;;;;;39.78;16.00;;;;;;;;;;5032776;27;100637;-75
2022/01/13 04:26:06;;;;;;;43.58;16.30;;;;;;;;;;5015120;28;100132;-75
2022/01/13 04:28:33;;;;;;;39.30;16.83;;;;;;;;;;5047994;27;100036;-75
2022/01/13 04:31:00;;;;;;;46.03;16.42;;;;;;;;;;5052394;27;100273;-75
2022/01/13 04:33:32;;;;;;;48.72;16.75;;;;;;;;;;5018147;27;101044;-75
2022/01/13 04:36:00;;;;;;;43.60;17.15;;;;;;;;;;5052539;27;99866;-75
2022/01/13 04:38:28;;;;;;;41.90;15.80;;;;;;;;;;5052609;27;100038;-74
2022/01/13 04:40:56;;;;;;;40.47;16.70;;;;;;;;;;5001211;27;100140;-73
2022/01/13 04:43:29;;;;;;;43.75;17.67;;;;;;;;;;5019163;27;100602;-74
2022/01/13 04:45:56;;;;;;;39.85;15.45;;;;;;;;;;5050596;27;100171;-74
2022/01/13 04:48:24;;;;;;;48.85;18.33;;;;;;;;;;5018560;27;99846;-74
2022/01/13 04:50:51;;;;;;;42.42;16.70;;;;;;;;;;5034465;27;100336;-74
2022/01/13 04:53:18;;;;;;;49.20;18.00;;;;;;;;;;5033106;27;100529;-75
2022/01/13 04:55:51;;;;;;;41.17;17.02;;;;;;;;;;5017907;27;100010;-74
2022/01/13 04:58:18;;;;;;;52.00;19.92;;;;;;;;;;5029913;28;99950;-74
2022/01/13 05:00:44;;;;;;;40.97;16.65;;;;;;;;;;4997793;28;100523;-75
2022/01/13 05:03:12;;;;;;;42.30;16.02;;;;;;;;;;5022911;27;100569;-75
2022/01/13 05:05:38;;;;;;;43.58;16.80;;;;;;;;;;5031937;27;99815;-74
2022/01/13 05:08:05;;;;;;;39.92;16.30;;;;;;;;;;5032391;27;99868;-74
2022/01/13 05:10:32;;;;;;;41.80;14.18;;;;;;;;;;4980630;27;100389;-75
2022/01/13 05:12:59;;;;;;;47.97;17.67;;;;;;;;;;5013812;28;100762;-75
2022/01/13 05:15:27;;;;;;;43.40;18.17;;;;;;;;;;4997129;28;100036;-75
2022/01/13 05:20:40;;;;;;;38.92;15.88;;;;;;;;;;4997462;27;100775;-75
2022/01/13 05:23:08;;;;;;;44.65;15.68;;;;;;;;;;5013636;28;100555;-75
2022/01/13 05:25:35;;;;;;;44.63;17.23;;;;;;;;;;4997323;27;100122;-75
2022/01/13 05:28:02;;;;;;;43.83;16.27;;;;;;;;;;5017764;28;100005;-75
2022/01/13 05:30:29;;;;;;;45.78;18.98;;;;;;;;;;5016874;28;100194;-75
2022/01/13 05:32:56;;;;;;;47.65;18.45;;;;;;;;;;5019174;27;100727;-75
2022/01/13 05:35:24;;;;;;;48.85;19.60;;;;;;;;;;5037730;27;100054;-75
2022/01/13 05:37:51;;;;;;;41.78;15.85;;;;;;;;;;5021348;27;99848;-74
2022/01/13 05:40:19;;;;;;;40.42;17.02;;;;;;;;;;5053307;27;100550;-75
2022/01/13 05:42:46;;;;;;;40.88;16.38;;;;;;;;;;5037412;27;101283;-75
2022/01/13 05:45:18;;;;;;;44.08;16.58;;;;;;;;;;5037371;27;100272;-74
2022/01/13 05:47:45;;;;;;;44.47;16.70;;;;;;;;;;5034807;27;99846;-75
2022/01/13 05:50:13;;;;;;;39.05;15.63;;;;;;;;;;5033243;27;100530;-75
2022/01/13 05:52:40;;;;;;;32.88;15.07;;;;;;;;;;5015162;27;100534;-74
2022/01/13 05:55:07;;;;;;;39.65;15.90;;;;;;;;;;5010250;27;100028;-75
2022/01/13 05:57:34;;;;;;;45.95;18.67;;;;;;;;;;5043539;27;100172;-75
2022/01/13 06:00:01;;;;;;;40.42;16.88;;;;;;;;;;5024554;27;100487;-74
2022/01/13 06:02:37;;;;;;;39.85;17.08;;;;;;;;;;5022726;27;103407;-74
2022/01/13 06:05:05;;;;;;;48.08;17.80;;;;;;;;;;5024692;27;100036;-73
2022/01/13 06:07:32;;;;;;;46.38;17.75;;;;;;;;;;5023781;27;99991;-74
2022/01/13 06:09:59;;;;;;;46.70;16.88;;;;;;;;;;5011557;27;102378;-74
2022/01/13 06:12:37;;;;;;;37.08;15.00;;;;;;;;;;5010049;27;101272;-74
2022/01/13 06:15:09;;;;;;;41.95;18.00;;;;;;;;;;5008337;28;100035;-74
2022/01/13 06:17:36;;;;;;;36.63;16.23;;;;;;;;;;5014757;27;100936;-74
2022/01/13 06:20:08;;;;;;;45.28;17.52;;;;;;;;;;5016249;27;100215;-74
2022/01/13 06:22:35;;;;;;;42.47;17.25;;;;;;;;;;5034481;27;100557;-74
2022/01/13 06:25:06;;;;;;;43.50;17.60;;;;;;;;;;4967002;28;100152;-75
2022/01/13 06:27:33;;;;;;;43.33;17.70;;;;;;;;;;5017196;27;99848;-75
2022/01/13 06:30:06;;;;;;;41.80;17.50;;;;;;;;;;5040674;27;101944;-74
2022/01/13 06:32:32;;;;;;;42.95;16.33;;;;;;;;;;5053906;27;100628;-75
2022/01/13 06:34:59;;;;;;;37.90;15.55;;;;;;;;;;5034132;27;100004;-75
2022/01/13 06:37:26;;;;;;;43.47;17.45;;;;;;;;;;5000768;28;100028;-75
2022/01/13 06:39:53;;;;;;;48.13;17.85;;;;;;;;;;5017017;27;100514;-74
2022/01/13 06:42:20;;;;;;;48.38;18.73;;;;;;;;;;5034571;27;102527;-75
2022/01/13 06:44:47;;;;;;;44.88;18.15;;;;;;;;;;5036253;27;100151;-75
2022/01/13 06:47:14;;;;;;;39.67;17.38;;;;;;;;;;5036654;27;100041;-75
2022/01/13 06:49:40;;;;;;;37.05;14.48;;;;;;;;;;5035874;27;100187;-75
2022/01/13 06:52:07;;;;;;;34.55;16.00;;;;;;;;;;5036395;27;100484;-75
2022/01/13 06:54:34;;;;;;;37.97;15.68;;;;;;;;;;5054722;27;99974;-75
2022/01/13 06:57:03;;;;;;;42.28;14.98;;;;;;;;;;5020450;27;99892;-74
2022/01/13 06:59:29;;;;;;;46.97;17.67;;;;;;;;;;5036317;27;100177;-74
2022/01/13 07:01:59;;;;;;;45.83;17.48;;;;;;;;;;5005944;28;100582;-74
2022/01/13 07:04:27;;;;;;;48.20;18.40;;;;;;;;;;5016859;28;100133;-74
2022/01/13 07:06:54;;;;;;;43.20;18.23;;;;;;;;;;5033841;27;100014;-74
2022/01/13 07:09:21;;;;;;;36.50;15.70;;;;;;;;;;4998932;28;100223;-74
2022/01/13 07:11:48;;;;;;;47.88;18.52;;;;;;;;;;5015967;28;100552;-74
2022/01/13 07:14:15;;;;;;;44.70;18.52;;;;;;;;;;5033579;27;99966;-74
2022/01/13 07:16:42;;;;;;;41.85;16.95;;;;;;;;;;5033988;27;100001;-74
2022/01/13 07:19:10;;;;;;;37.53;15.98;;;;;;;;;;5033599;27;100316;-75
2022/01/13 07:21:38;;;;;;;42.05;16.55;;;;;;;;;;5033530;27;100670;-75
2022/01/13 07:24:05;;;;;;;48.53;18.40;;;;;;;;;;5011310;27;100174;-75
2022/01/13 07:26:32;;;;;;;47.08;17.88;;;;;;;;;;5036482;27;99909;-75
2022/01/13 07:28:59;;;;;;;44.10;17.05;;;;;;;;;;5035074;27;102188;-75
2022/01/13 07:31:27;;;;;;;46.13;17.05;;;;;;;;;;5028416;27;101047;-75
2022/01/13 07:33:55;;;;;;;54.10;17.80;;;;;;;;;;5035599;27;100115;-75
2022/01/13 07:36:21;;;;;;;46.50;16.45;;;;;;;;;;5036075;27;99977;-75
2022/01/13 07:38:48;;;;;;;39.13;14.60;;;;;;;;;;5029099;27;100745;-75
2022/01/13 07:41:15;;;;;;;40.97;14.23;;;;;;;;;;4982435;27;100563;-75
2022/01/13 07:43:47;;;;;;;44.85;16.05;;;;;;;;;;5015642;28;99997;-76
2022/01/13 07:46:14;;;;;;;33.17;13.25;;;;;;;;;;5016299;27;99888;-75
2022/01/13 07:48:41;;;;;;;41.08;14.25;;;;;;;;;;5014813;27;100266;-74
2022/01/13 07:51:08;;;;;;;41.30;13.80;;;;;;;;;;4995529;28;100706;-75
2022/01/13 07:53:35;;;;;;;38.33;13.10;;;;;;;;;;5030583;28;100184;-74
2022/01/13 07:56:02;;;;;;;30.83;12.75;;;;;;;;;;5031685;28;100193;-75
2022/01/13 07:58:29;;;;;;;40.05;14.32;;;;;;;;;;4981626;28;100279;-75
2022/01/13 08:00:55;;;;;;;46.20;16.85;;;;;;;;;;5032635;28;100621;-75
2022/01/13 08:03:23;;;;;;;36.83;14.73;;;;;;;;;;5032832;28;99997;-75
2022/01/13 08:05:49;;;;;;;39.95;14.63;;;;;;;;;;4982312;28;99987;-75
2022/01/13 08:08:16;;;;;;;40.70;15.43;;;;;;;;;;5031583;28;100195;-75
2022/01/13 08:10:43;;;;;;;41.50;16.90;;;;;;;;;;5032557;28;100645;-76
2022/01/13 08:13:12;;;;;;;34.85;14.55;;;;;;;;;;5015187;27;100066;-75
2022/01/13 08:15:44;;;;;;;35.95;13.95;;;;;;;;;;5013220;28;101605;-75
2022/01/13 08:20:56;;;;;;;36.28;14.85;;;;;;;;;;5032457;27;100593;-74
2022/01/13 08:23:23;;;;;;;30.08;13.25;;;;;;;;;;5027726;27;100145;-75
2022/01/13 08:25:50;;;;;;;26.80;12.23;;;;;;;;;;5031148;28;100117;-75
2022/01/13 08:28:17;;;;;;;38.80;16.35;;;;;;;;;;5030981;28;100424;-75
2022/01/13 08:30:44;;;;;;;36.92;15.80;;;;;;;;;;4995693;28;100574;-75
2022/01/13 08:33:11;;;;;;;42.80;14.48;;;;;;;;;;5030602;27;100072;-75
2022/01/13 08:35:43;;;;;;;37.50;14.05;;;;;;;;;;5013760;28;100042;-75
2022/01/13 08:38:16;;;;;;;37.70;15.52;;;;;;;;;;5008179;28;100463;-75
2022/01/13 08:40:44;;;;;;;36.58;14.88;;;;;;;;;;5029533;28;100588;-75
2022/01/13 08:43:11;;;;;;;44.08;17.67;;;;;;;;;;5031959;28;100056;-75
2022/01/13 08:45:38;;;;;;;37.60;15.90;;;;;;;;;;5026532;28;100289;-76
2022/01/13 08:48:05;;;;;;;31.35;12.85;;;;;;;;;;5031455;28;100262;-75
2022/01/13 08:50:32;;;;;;;42.13;14.93;;;;;;;;;;5012393;28;101482;-75
2022/01/13 08:52:59;;;;;;;33.40;13.52;;;;;;;;;;4997168;28;100051;-75
2022/01/13 08:55:26;;;;;;;39.58;13.65;;;;;;;;;;5014033;28;100049;-76
2022/01/13 08:57:53;;;;;;;31.13;14.15;;;;;;;;;;5031852;27;100349;-76
2022/01/13 09:00:20;;;;;;;33.17;13.32;;;;;;;;;;5008171;27;100906;-75
2022/01/13 09:02:47;;;;;;;43.45;15.25;;;;;;;;;;5039292;27;100156;-75
2022/01/13 09:05:16;;;;;;;40.13;15.68;;;;;;;;;;5011410;27;99986;-77
2022/01/13 09:07:42;;;;;;;44.35;18.20;;;;;;;;;;5022461;27;102340;-76
2022/01/13 09:10:11;;;;;;;39.30;17.05;;;;;;;;;;5026677;28;103156;-75
2022/01/13 09:12:41;;;;;;;31.65;13.45;;;;;;;;;;5030106;28;100245;-76
2022/01/13 09:15:25;;;;;;;40.35;15.93;;;;;;;;;;5029416;28;100052;-75
2022/01/13 09:17:53;;;;;;;41.70;16.42;;;;;;;;;;5015090;28;101327;-75
2022/01/13 09:20:20;;;;;;;33.83;14.07;;;;;;;;;;5011497;28;102617;-75
2022/01/13 09:22:47;;;;;;;34.30;14.45;;;;;;;;;;5008860;28;100212;-76
2022/01/13 09:25:14;;;;;;;38.13;14.60;;;;;;;;;;5013287;28;100054;-75
2022/01/13 09:27:41;;;;;;;40.15;16.42;;;;;;;;;;5031163;27;100315;-76
2022/01/13 09:30:12;;;;;;;35.33;13.95;;;;;;;;;;5003909;28;100644;-74
2022/01/13 09:32:39;;;;;;;31.58;13.70;;;;;;;;;;5030456;27;100037;-75
2022/01/13 09:35:07;;;;;;;41.80;15.68;;;;;;;;;;5050843;27;100016;-75
2022/01/13 09:37:34;;;;;;;38.67;15.32;;;;;;;;;;5017088;28;101648;-74
2022/01/13 09:40:01;;;;;;;38.58;16.13;;;;;;;;;;5016958;27;101163;-74
2022/01/13 09:42:29;;;;;;;37.70;15.50;;;;;;;;;;5051329;27;99994;-74
2022/01/13 09:44:57;;;;;;;33.85;14.63;;;;;;;;;;5033441;27;100083;-75
2022/01/13 09:47:24;;;;;;;35.38;14.63;;;;;;;;;;5032930;27;100335;-75
2022/01/13 09:49:51;;;;;;;35.20;13.93;;;;;;;;;;5050737;27;100676;-75
2022/01/13 09:52:20;;;;;;;33.15;13.52;;;;;;;;;;5000026;27;100508;-75
2022/01/13 09:54:48;;;;;;;34.40;14.13;;;;;;;;;;5033175;27;100061;-75
2022/01/13 09:57:15;;;;;;;36.28;13.93;;;;;;;;;;5030672;27;100847;-74
2022/01/13 09:59:42;;;;;;;37.35;13.80;;;;;;;;;;5009209;27;100666;-74
2022/01/13 10:02:10;;;;;;;24.98;10.20;;;;;;;;;;5023999;27;100364;-75
2022/01/13 10:04:50;;;;;;;31.50;12.80;;;;;;;;;;5050572;27;100089;-74
2022/01/13 10:07:50;;;;;;;34.97;14.45;;;;;;;;;;5032074;27;100879;-74
2022/01/13 10:10:25;;;;;;;26.20;10.25;;;;;;;;;;4991746;28;102028;-75
2022/01/13 10:13:10;;;;;;;29.73;12.93;;;;;;;;;;5028536;27;100457;-74
2022/01/13 10:18:36;;;;;;;31.17;13.57;;;;;;;;;;5032184;27;100270;-74
2022/01/13 10:21:10;;;;;;;25.00;11.95;;;;;;;;;;5030781;27;100585;-74
2022/01/13 10:23:36;;;;;;;32.55;11.68;;;;;;;;;;5028343;27;100574;-74
2022/01/13 10:26:10;;;;;;;26.88;11.80;;;;;;;;;;5041221;27;99924;-74
2022/01/13 10:28:37;;;;;;;28.60;12.68;;;;;;;;;;5018128;27;100541;-74
2022/01/13 10:31:04;;;;;;;31.60;12.43;;;;;;;;;;5027414;28;101162;-74
2022/01/13 10:33:31;;;;;;;27.23;10.88;;;;;;;;;;5033367;27;100305;-75
2022/01/13 10:36:12;;;;;;;27.77;11.82;;;;;;;;;;5074658;27;100064;-74
2022/01/13 10:38:56;;;;;;;28.88;11.25;;;;;;;;;;5055958;27;100328;-74
2022/01/13 10:42:00;;;;;;;27.08;11.02;;;;;;;;;;5034418;27;100554;-75
2022/01/13 10:44:25;;;;;;;30.27;12.52;;;;;;;;;;5050427;27;100209;-75
2022/01/13 10:46:56;;;;;;;32.15;11.70;;;;;;;;;;5035352;27;100237;-74
2022/01/13 10:49:40;;;;;;;24.88;10.38;;;;;;;;;;4986889;27;100844;-74
2022/01/13 10:52:25;;;;;;;35.65;12.50;;;;;;;;;;5009775;27;100676;-75
2022/01/13 10:55:11;;;;;;;24.98;10.75;;;;;;;;;;4998255;28;100148;-74
2022/01/13 10:57:58;;;;;;;29.52;11.40;;;;;;;;;;5033771;27;100008;-74
2022/01/13 11:00:26;;;;;;;24.75;10.05;;;;;;;;;;5032271;27;100181;-75
2022/01/13 11:03:06;;;;;;;28.58;10.73;;;;;;;;;;5014286;27;101113;-74
2022/01/13 11:05:36;;;;;;;30.65;12.43;;;;;;;;;;5016313;28;99989;-74
2022/01/13 11:08:04;;;;;;;22.67;10.15;;;;;;;;;;4998048;27;100143;-74
2022/01/13 11:10:31;;;;;;;28.92;12.60;;;;;;;;;;5034183;27;100323;-75
2022/01/13 11:13:00;;;;;;;28.83;12.25;;;;;;;;;;5027340;28;100565;-75
2022/01/13 11:15:28;;;;;;;27.98;10.80;;;;;;;;;;4998938;27;100173;-75
2022/01/13 11:17:57;;;;;;;29.88;10.95;;;;;;;;;;4983094;27;100168;-74
2022/01/13 11:20:26;;;;;;;29.40;11.32;;;;;;;;;;5034488;27;100713;-74
2022/01/13 11:22:53;;;;;;;24.95;10.95;;;;;;;;;;5017179;27;100537;-74
2022/01/13 11:25:23;;;;;;;30.55;11.43;;;;;;;;;;5015378;27;100259;-74
2022/01/13 11:27:52;;;;;;;23.48;10.65;;;;;;;;;;5030660;27;100013;-74
2022/01/13 11:30:22;;;;;;;27.05;11.57;;;;;;;;;;5017645;27;100225;-76
2022/01/13 11:32:50;;;;;;;27.52;11.73;;;;;;;;;;5017418;27;100740;-74
2022/01/13 11:35:28;;;;;;;28.88;11.82;;;;;;;;;;5019992;28;100512;-73
2022/01/13 11:37:56;;;;;;;24.85;9.95;;;;;;;;;;5033400;27;102970;-74
2022/01/13 11:40:26;;;;;;;20.10;9.43;;;;;;;;;;5034028;27;100467;-75
2022/01/13 11:42:58;;;;;;;22.97;10.77;;;;;;;;;;5051908;27;100578;-75
2022/01/13 11:46:35;;;;;;;31.95;12.23;;;;;;;;;;5032862;27;100199;-74
2022/01/13 11:49:16;;;;;;;28.52;11.93;;;;;;;;;;5033778;27;100049;-75
2022/01/13 11:51:56;;;;;;;23.83;10.50;;;;;;;;;;5024185;27;100288;-75
2022/01/13 11:54:36;;;;;;;28.20;11.65;;;;;;;;;;4997827;28;100729;-75
2022/01/13 11:57:26;;;;;;;26.30;10.45;;;;;;;;;;5049186;27;99960;-75
2022/01/13 11:59:56;;;;;;;28.77;11.82;;;;;;;;;;5034652;27;100116;-75
2022/01/13 12:02:24;;;;;;;24.05;11.45;;;;;;;;;;5052717;27;100336;-75
2022/01/13 12:05:14;;;;;;;32.25;11.75;;;;;;;;;;5034658;27;100576;-74
2022/01/13 12:07:44;;;;;;;24.95;9.93;;;;;;;;;;5052240;27;100439;-74
2022/01/13 12:10:40;;;;;;;24.77;10.43;;;;;;;;;;5052202;27;100524;-75
2022/01/13 12:13:31;;;;;;;27.55;11.05;;;;;;;;;;5019785;27;100269;-75
2022/01/13 12:15:58;;;;;;;27.52;12.18;;;;;;;;;;5034576;27;101241;-75
2022/01/13 12:18:43;;;;;;;29.83;11.35;;;;;;;;;;5032130;27;100113;-74
2022/01/13 12:21:32;;;;;;;31.90;12.68;;;;;;;;;;5031477;27;100133;-74
2022/01/13 12:24:00;;;;;;;31.35;11.98;;;;;;;;;;5031218;27;100373;-75
2022/01/13 12:26:32;;;;;;;24.75;11.23;;;;;;;;;;5023798;27;101177;-72
2022/01/13 12:29:22;;;;;;;32.53;12.98;;;;;;;;;;5012579;27;100203;-74
2022/01/13 12:31:55;;;;;;;29.95;12.55;;;;;;;;;;5014092;27;100280;-74
2022/01/13 12:34:28;;;;;;;31.67;13.48;;;;;;;;;;5022522;27;100406;-74
2022/01/13 12:36:55;;;;;;;37.85;13.68;;;;;;;;;;5031864;27;100625;-74
2022/01/13 12:39:22;;;;;;;36.92;14.27;;;;;;;;;;5013380;27;100055;-74
2022/01/13 12:41:56;;;;;;;33.45;13.50;;;;;;;;;;5037632;27;101006;-74
2022/01/13 12:45:28;;;;;;;29.85;12.10;;;;;;;;;;5051045;27;100831;-74
2022/01/13 12:47:11;;;;;;;31.33;11.90;;;;;;;;;;5033082;27;100666;-74
2022/01/13 12:49:50;;;;;;;37.80;15.20;;;;;;;;;;5009051;27;100718;-75
2022/01/13 12:52:26;;;;;;;39.58;14.85;;;;;;;;;;5028663;27;101541;-75
2022/01/13 12:54:53;;;;;;;39.60;14.63;;;;;;;;;;5050735;27;100183;-74
2022/01/13 12:57:22;;;;;;;32.10;12.95;;;;;;;;;;5037105;27;100597;-75
2022/01/13 12:59:56;;;;;;;24.40;11.43;;;;;;;;;;5012992;28;100485;-75
2022/01/13 13:02:23;;;;;;;23.55;10.70;;;;;;;;;;4997053;27;100151;-75
2022/01/13 13:04:50;;;;;;;26.42;12.90;;;;;;;;;;5032245;27;100375;-75
2022/01/13 13:07:16;;;;;;;34.30;12.90;;;;;;;;;;5019921;27;101855;-75
2022/01/13 13:09:43;;;;;;;24.17;11.00;;;;;;;;;;5010548;27;100167;-75
2022/01/13 13:12:13;;;;;;;25.73;10.05;;;;;;;;;;4997888;27;101784;-75
2022/01/13 13:17:32;;;;;;;30.15;12.77;;;;;;;;;;5018530;27;100713;-75
2022/01/13 13:19:59;;;;;;;34.55;11.88;;;;;;;;;;5015194;27;100780;-75
2022/01/13 13:22:26;;;;;;;29.13;11.57;;;;;;;;;;5030638;27;100545;-75
2022/01/13 13:24:54;;;;;;;22.33;11.23;;;;;;;;;;4997005;27;101620;-74
2022/01/13 13:27:27;;;;;;;29.10;12.13;;;;;;;;;;5032728;27;100545;-75
2022/01/13 13:29:54;;;;;;;27.87;11.60;;;;;;;;;;4993599;27;100878;-74
2022/01/13 13:32:21;;;;;;;27.00;12.43;;;;;;;;;;5050938;27;100372;-75
2022/01/13 13:34:48;;;;;;;29.45;13.27;;;;;;;;;;5043783;27;100268;-76
2022/01/13 13:37:16;;;;;;;36.53;13.98;;;;;;;;;;5034249;27;101066;-75
2022/01/13 13:39:43;;;;;;;36.67;13.40;;;;;;;;;;5035176;27;100443;-75
2022/01/13 13:42:12;;;;;;;41.15;15.00;;;;;;;;;;5036072;27;100166;-73
2022/01/13 13:44:41;;;;;;;37.47;14.95;;;;;;;;;;5029479;27;100841;-74
2022/01/13 13:47:19;;;;;;;37.05;15.38;;;;;;;;;;5016875;27;100657;-75
2022/01/13 13:49:48;;;;;;;38.13;15.75;;;;;;;;;;5030114;27;100271;-75
2022/01/13 13:52:14;;;;;;;36.38;14.77;;;;;;;;;;5047853;27;100721;-75
2022/01/13 13:54:45;;;;;;;39.10;15.45;;;;;;;;;;5053337;27;100760;-75
2022/01/13 13:57:13;;;;;;;36.65;15.13;;;;;;;;;;5001472;27;100561;-75
2022/01/13 13:59:47;;;;;;;41.00;17.30;;;;;;;;;;5016175;28;100264;-74
2022/01/13 14:02:19;;;;;;;;;;;;;;;;;;5036539;27;102888;-74
2022/01/13 14:04:52;;;;;;;42.90;16.77;;;;;;;;;;5038709;27;100195;-74
2022/01/13 14:07:25;;;;;;;38.35;15.38;;;;;;;;;;5033407;27;100643;-75
2022/01/13 14:09:58;;;;;;;36.50;14.48;;;;;;;;;;5036207;27;100115;-75
2022/01/13 14:12:35;;;;;;;35.53;15.18;;;;;;;;;;5036841;27;100183;-75
2022/01/13 14:15:36;;;;;;;32.60;13.98;;;;;;;;;;5015491;28;100139;-76
2022/01/13 14:18:18;;;;;;;41.58;15.52;;;;;;;;;;5020483;27;100732;-75
2022/01/13 14:21:00;;;;;;;45.22;17.42;;;;;;;;;;5028143;27;100750;-75
2022/01/13 14:23:30;;;;;;;;;;;;;;;;;;5018723;27;100174;-74
2022/01/13 14:26:01;;;;;;;39.88;16.08;;;;;;;;;;5018995;27;100186;-73
2022/01/13 14:28:30;;;;;;;32.63;14.10;;;;;;;;;;5049889;27;101809;-74
2022/01/13 14:31:02;;;;;;;33.65;14.80;;;;;;;;;;5032994;27;100405;-74
2022/01/13 14:33:39;;;;;;;41.03;15.38;;;;;;;;;;5014746;27;100421;-74
2022/01/13 14:36:16;;;;;;;36.30;14.57;;;;;;;;;;5032741;27;100450;-73
2022/01/13 14:38:57;;;;;;;32.83;13.55;;;;;;;;;;5036597;27;101580;-74
2022/01/13 14:41:39;;;;;;;34.40;13.52;;;;;;;;;;5017804;27;100054;-74
2022/01/13 14:44:18;;;;;;;34.60;14.02;;;;;;;;;;5051145;27;102310;-75
2022/01/13 14:47:04;;;;;;;35.50;15.40;;;;;;;;;;5037713;27;100551;-75
2022/01/13 14:49:35;;;;;;;40.33;15.05;;;;;;;;;;5033271;27;100766;-75
2022/01/13 14:52:05;;;;;;;40.28;16.60;;;;;;;;;;5004343;27;100101;-75
2022/01/13 14:54:32;;;;;;;33.95;14.05;;;;;;;;;;5035377;27;100225;-74